sensor_id;sensor_type;location;lat;lon;timestamp;temperature;humidity
15707;DHT22;7953;54.302;10.128;2023-03-01T00:01:31;1.20;99.90
15707;DHT22;7953;54.302;10.128;2023-03-01T00:03:58;1.10;99.90
15707;DHT22;7953;54.302;10.128;2023-03-01T00:06:26;1.10;99.90
15707;DHT22;7953;54.302;10.128;2023-03-01T00:08:54;1.10;99.90
15707;DHT22;7953;54.302;10.128;2023-03-01T00:11:22;1.10;99.90
15707;DHT22;7953;54.302;10.128;2023-03-01T00:13:52;1.10;99.90
15707;DHT22;7953;54.302;10.128;2023-03-01T00:16:22;1.20;99.90
15707;DHT22;7953;54.302;10.128;2023-03-01T00:18:49;1.10;99.90
15707;DHT22;7953;54.302;10.128;2023-03-01T00:21:16;1.20;99.90
15707;DHT22;7953;54.302;10.128;2023-03-01T00:23:43;1.10;99.90
15707;DHT22;7953;54.302;10.128;2023-03-01T00:26:12;1.20;99.90
15707;DHT22;7953;54.302;10.128;2023-03-01T00:28:39;1.10;99.90
15707;DHT22;7953;54.302;10.128;2023-03-01T00:31:10;1.10;99.90
15707;DHT22;7953;54.302;10.128;2023-03-01T00:33:38;1.10;99.90
15707;DHT22;7953;54.302;10.128;2023-03-01T00:36:06;1.20;99.90
15707;DHT22;7953;54.302;10.128;2023-03-01T00:38:35;1.20;99.90
15707;DHT22;7953;54.302;10.128;2023-03-01T00:41:06;1.20;99.90
15707;DHT22;7953;54.302;10.128;2023-03-01T00:43:33;1.20;99.90
15707;DHT22;7953;54.302;10.128;2023-03-01T00:46:02;1.20;99.90
15707;DHT22;7953;54.302;10.128;2023-03-01T00:48:31;1.10;99.90
15707;DHT22;7953;54.302;10.128;2023-03-01T00:51:04;1.10;99.90
15707;DHT22;7953;54.302;10.128;2023-03-01T00:53:31;1.00;99.90
15707;DHT22;7953;54.302;10.128;2023-03-01T00:55:58;1.10;99.90
15707;DHT22;7953;54.302;10.128;2023-03-01T00:58:25;1.00;99.90
15707;DHT22;7953;54.302;10.128;2023-03-01T01:00:52;0.90;99.90
15707;DHT22;7953;54.302;10.128;2023-03-01T01:03:19;0.90;99.90
15707;DHT22;7953;54.302;10.128;2023-03-01T01:05:49;0.90;99.90
15707;DHT22;7953;54.302;10.128;2023-03-01T01:08:16;0.90;99.90
15707;DHT22;7953;54.302;10.128;2023-03-01T01:10:43;0.80;99.90
15707;DHT22;7953;54.302;10.128;2023-03-01T01:13:10;0.80;99.90
15707;DHT22;7953;54.302;10.128;2023-03-01T01:15:39;0.70;99.90
15707;DHT22;7953;54.302;10.128;2023-03-01T01:18:06;0.70;99.90
15707;DHT22;7953;54.302;10.128;2023-03-01T01:20:35;0.60;99.90
15707;DHT22;7953;54.302;10.128;2023-03-01T01:23:05;0.60;99.90
15707;DHT22;7953;54.302;10.128;2023-03-01T01:25:34;0.60;99.90
15707;DHT22;7953;54.302;10.128;2023-03-01T01:28:02;0.60;99.90
15707;DHT22;7953;54.302;10.128;2023-03-01T01:30:29;0.60;99.90
15707;DHT22;7953;54.302;10.128;2023-03-01T01:32:57;0.50;99.90
15707;DHT22;7953;54.302;10.128;2023-03-01T01:35:24;0.50;99.90
15707;DHT22;7953;54.302;10.128;2023-03-01T01:37:50;0.50;99.90
15707;DHT22;7953;54.302;10.128;2023-03-01T01:40:19;0.40;99.90
15707;DHT22;7953;54.302;10.128;2023-03-01T01:42:46;0.40;99.90
15707;DHT22;7953;54.302;10.128;2023-03-01T01:45:29;0.40;99.90
15707;DHT22;7953;54.302;10.128;2023-03-01T01:48:00;0.40;99.90
15707;DHT22;7953;54.302;10.128;2023-03-01T01:50:29;0.40;99.90
15707;DHT22;7953;54.302;10.128;2023-03-01T01:53:06;0.40;99.90
15707;DHT22;7953;54.302;10.128;2023-03-01T01:55:37;0.40;99.90
15707;DHT22;7953;54.302;10.128;2023-03-01T01:58:07;0.40;99.90
15707;DHT22;7953;54.302;10.128;2023-03-01T02:00:35;0.40;99.90
15707;DHT22;7953;54.302;10.128;2023-03-01T02:03:08;0.40;99.90
15707;DHT22;7953;54.302;10.128;2023-03-01T02:05:40;0.30;99.90
15707;DHT22;7953;54.302;10.128;2023-03-01T02:08:11;0.30;99.90
15707;DHT22;7953;54.302;10.128;2023-03-01T02:10:41;0.30;99.90
15707;DHT22;7953;54.302;10.128;2023-03-01T02:13:08;0.30;99.90
15707;DHT22;7953;54.302;10.128;2023-03-01T02:15:37;0.30;99.90
15707;DHT22;7953;54.302;10.128;2023-03-01T02:18:06;0.30;99.90
15707;DHT22;7953;54.302;10.128;2023-03-01T02:20:40;0.30;99.90
15707;DHT22;7953;54.302;10.128;2023-03-01T02:23:12;0.30;99.90
15707;DHT22;7953;54.302;10.128;2023-03-01T02:25:46;0.30;99.90
15707;DHT22;7953;54.302;10.128;2023-03-01T02:28:28;0.30;99.90
15707;DHT22;7953;54.302;10.128;2023-03-01T02:30:55;0.30;99.90
15707;DHT22;7953;54.302;10.128;2023-03-01T02:33:40;0.30;99.90
15707;DHT22;7953;54.302;10.128;2023-03-01T02:36:10;0.30;99.90
15707;DHT22;7953;54.302;10.128;2023-03-01T02:38:39;0.20;99.90
15707;DHT22;7953;54.302;10.128;2023-03-01T02:41:07;0.20;99.90
15707;DHT22;7953;54.302;10.128;2023-03-01T02:43:37;0.20;99.90
15707;DHT22;7953;54.302;10.128;2023-03-01T02:46:06;0.20;99.90
15707;DHT22;7953;54.302;10.128;2023-03-01T02:48:42;0.20;99.90
15707;DHT22;7953;54.302;10.128;2023-03-01T02:51:21;0.20;99.90
15707;DHT22;7953;54.302;10.128;2023-03-01T02:53:58;0.20;99.90
15707;DHT22;7953;54.302;10.128;2023-03-01T02:56:28;0.20;99.90
15707;DHT22;7953;54.302;10.128;2023-03-01T02:58:57;0.20;99.90
15707;DHT22;7953;54.302;10.128;2023-03-01T03:01:27;0.20;99.90
15707;DHT22;7953;54.302;10.128;2023-03-01T03:04:02;0.20;99.90
15707;DHT22;7953;54.302;10.128;2023-03-01T03:06:29;0.20;99.90
15707;DHT22;7953;54.302;10.128;2023-03-01T03:08:56;0.20;99.90
15707;DHT22;7953;54.302;10.128;2023-03-01T03:11:23;0.20;99.90
15707;DHT22;7953;54.302;10.128;2023-03-01T03:13:50;0.20;99.90
15707;DHT22;7953;54.302;10.128;2023-03-01T03:16:19;0.20;99.90
15707;DHT22;7953;54.302;10.128;2023-03-01T03:18:46;0.20;99.90
15707;DHT22;7953;54.302;10.128;2023-03-01T03:21:14;0.20;99.90
15707;DHT22;7953;54.302;10.128;2023-03-01T03:23:41;0.20;99.90
15707;DHT22;7953;54.302;10.128;2023-03-01T03:26:08;0.20;99.90
15707;DHT22;7953;54.302;10.128;2023-03-01T03:28:39;0.20;99.90
15707;DHT22;7953;54.302;10.128;2023-03-01T03:31:06;0.20;99.90
15707;DHT22;7953;54.302;10.128;2023-03-01T03:33:35;0.20;99.90
15707;DHT22;7953;54.302;10.128;2023-03-01T03:36:03;0.20;99.90
15707;DHT22;7953;54.302;10.128;2023-03-01T03:38:30;0.20;99.90
15707;DHT22;7953;54.302;10.128;2023-03-01T03:41:01;0.20;99.90
15707;DHT22;7953;54.302;10.128;2023-03-01T03:43:30;0.10;99.90
15707;DHT22;7953;54.302;10.128;2023-03-01T03:45:57;0.20;99.90
15707;DHT22;7953;54.302;10.128;2023-03-01T03:48:25;0.20;99.90
15707;DHT22;7953;54.302;10.128;2023-03-01T03:50:55;0.20;99.90
15707;DHT22;7953;54.302;10.128;2023-03-01T03:53:23;0.20;99.90
15707;DHT22;7953;54.302;10.128;2023-03-01T03:55:50;0.20;99.90
15707;DHT22;7953;54.302;10.128;2023-03-01T03:58:19;0.10;99.90
15707;DHT22;7953;54.302;10.128;2023-03-01T04:00:48;0.10;99.90
15707;DHT22;7953;54.302;10.128;2023-03-01T04:03:16;0.10;99.90
15707;DHT22;7953;54.302;10.128;2023-03-01T04:05:44;0.10;99.90
15707;DHT22;7953;54.302;10.128;2023-03-01T04:08:13;0.10;99.90
15707;DHT22;7953;54.302;10.128;2023-03-01T04:10:41;0.10;99.90
15707;DHT22;7953;54.302;10.128;2023-03-01T04:13:11;0.10;99.90
15707;DHT22;7953;54.302;10.128;2023-03-01T04:15:39;0.10;99.90
15707;DHT22;7953;54.302;10.128;2023-03-01T04:18:06;0.10;99.90
15707;DHT22;7953;54.302;10.128;2023-03-01T04:20:35;0.10;99.90
15707;DHT22;7953;54.302;10.128;2023-03-01T04:23:04;0.10;99.90
15707;DHT22;7953;54.302;10.128;2023-03-01T04:25:41;0.10;99.90
15707;DHT22;7953;54.302;10.128;2023-03-01T04:28:09;0.10;99.90
15707;DHT22;7953;54.302;10.128;2023-03-01T04:30:37;0.00;99.90
15707;DHT22;7953;54.302;10.128;2023-03-01T04:33:04;0.00;99.90
15707;DHT22;7953;54.302;10.128;2023-03-01T04:35:32;0.00;99.90
15707;DHT22;7953;54.302;10.128;2023-03-01T04:38:00;0.00;99.90
15707;DHT22;7953;54.302;10.128;2023-03-01T04:40:27;0.00;99.90
15707;DHT22;7953;54.302;10.128;2023-03-01T04:42:55;0.00;99.90
15707;DHT22;7953;54.302;10.128;2023-03-01T04:45:22;-0.10;99.90
15707;DHT22;7953;54.302;10.128;2023-03-01T04:50:22;-0.10;99.90
15707;DHT22;7953;54.302;10.128;2023-03-01T04:52:49;-0.20;99.90
15707;DHT22;7953;54.302;10.128;2023-03-01T04:55:16;-0.10;99.90
15707;DHT22;7953;54.302;10.128;2023-03-01T04:57:43;-0.20;99.90
15707;DHT22;7953;54.302;10.128;2023-03-01T05:00:13;-0.20;99.90
15707;DHT22;7953;54.302;10.128;2023-03-01T05:02:51;-0.20;99.90
15707;DHT22;7953;54.302;10.128;2023-03-01T05:05:21;-0.20;99.90
15707;DHT22;7953;54.302;10.128;2023-03-01T05:07:51;-0.20;99.90
15707;DHT22;7953;54.302;10.128;2023-03-01T05:10:19;-0.10;99.90
15707;DHT22;7953;54.302;10.128;2023-03-01T05:12:46;-0.10;99.90
15707;DHT22;7953;54.302;10.128;2023-03-01T05:15:14;-0.10;99.90
15707;DHT22;7953;54.302;10.128;2023-03-01T05:17:41;-0.10;99.90
15707;DHT22;7953;54.302;10.128;2023-03-01T05:20:10;-0.10;99.90
15707;DHT22;7953;54.302;10.128;2023-03-01T05:22:37;-0.10;99.90
15707;DHT22;7953;54.302;10.128;2023-03-01T05:25:04;-0.10;99.90
15707;DHT22;7953;54.302;10.128;2023-03-01T05:27:32;-0.10;99.90
15707;DHT22;7953;54.302;10.128;2023-03-01T05:29:59;-0.10;99.90
15707;DHT22;7953;54.302;10.128;2023-03-01T05:32:40;-0.10;99.90
15707;DHT22;7953;54.302;10.128;2023-03-01T05:35:08;-0.10;99.90
15707;DHT22;7953;54.302;10.128;2023-03-01T05:37:39;-0.20;99.90
15707;DHT22;7953;54.302;10.128;2023-03-01T05:40:08;-0.20;99.90
15707;DHT22;7953;54.302;10.128;2023-03-01T05:42:42;-0.20;99.90
15707;DHT22;7953;54.302;10.128;2023-03-01T05:45:09;-0.20;99.90
15707;DHT22;7953;54.302;10.128;2023-03-01T05:47:39;-0.30;99.90
15707;DHT22;7953;54.302;10.128;2023-03-01T05:50:10;-0.20;99.90
15707;DHT22;7953;54.302;10.128;2023-03-01T05:52:37;-0.20;99.90
15707;DHT22;7953;54.302;10.128;2023-03-01T05:55:05;-0.20;99.90
15707;DHT22;7953;54.302;10.128;2023-03-01T05:57:33;-0.20;99.90
15707;DHT22;7953;54.302;10.128;2023-03-01T05:59:59;-0.20;99.90
15707;DHT22;7953;54.302;10.128;2023-03-01T06:02:26;-0.30;99.90
15707;DHT22;7953;54.302;10.128;2023-03-01T06:04:56;-0.30;99.90
15707;DHT22;7953;54.302;10.128;2023-03-01T06:07:23;-0.30;99.90
15707;DHT22;7953;54.302;10.128;2023-03-01T06:09:50;-0.30;99.90
15707;DHT22;7953;54.302;10.128;2023-03-01T06:12:16;-0.30;99.90
15707;DHT22;7953;54.302;10.128;2023-03-01T06:14:45;-0.30;99.90
15707;DHT22;7953;54.302;10.128;2023-03-01T06:17:13;-0.30;99.90
15707;DHT22;7953;54.302;10.128;2023-03-01T06:19:40;-0.30;99.90
15707;DHT22;7953;54.302;10.128;2023-03-01T06:22:08;-0.30;99.90
15707;DHT22;7953;54.302;10.128;2023-03-01T06:24:35;-0.40;99.90
15707;DHT22;7953;54.302;10.128;2023-03-01T06:27:02;-0.30;99.90
15707;DHT22;7953;54.302;10.128;2023-03-01T06:29:29;-0.40;99.90
15707;DHT22;7953;54.302;10.128;2023-03-01T06:31:58;-0.40;99.90
15707;DHT22;7953;54.302;10.128;2023-03-01T06:34:25;-0.40;99.90
15707;DHT22;7953;54.302;10.128;2023-03-01T06:36:52;-0.40;99.90
15707;DHT22;7953;54.302;10.128;2023-03-01T06:39:20;-0.40;99.90
15707;DHT22;7953;54.302;10.128;2023-03-01T06:41:47;-0.40;99.90
15707;DHT22;7953;54.302;10.128;2023-03-01T06:44:14;-0.40;99.90
15707;DHT22;7953;54.302;10.128;2023-03-01T06:46:41;-0.40;99.90
15707;DHT22;7953;54.302;10.128;2023-03-01T06:49:08;-0.40;99.90
15707;DHT22;7953;54.302;10.128;2023-03-01T06:51:36;-0.40;99.90
15707;DHT22;7953;54.302;10.128;2023-03-01T06:54:03;-0.40;99.90
15707;DHT22;7953;54.302;10.128;2023-03-01T06:56:32;-0.40;99.90
15707;DHT22;7953;54.302;10.128;2023-03-01T06:58:59;-0.40;99.90
15707;DHT22;7953;54.302;10.128;2023-03-01T07:01:26;-0.40;99.90
15707;DHT22;7953;54.302;10.128;2023-03-01T07:03:53;-0.30;99.90
15707;DHT22;7953;54.302;10.128;2023-03-01T07:06:21;-0.30;99.90
15707;DHT22;7953;54.302;10.128;2023-03-01T07:08:47;-0.30;99.90
15707;DHT22;7953;54.302;10.128;2023-03-01T07:11:15;-0.20;99.90
15707;DHT22;7953;54.302;10.128;2023-03-01T07:13:43;-0.20;99.90
15707;DHT22;7953;54.302;10.128;2023-03-01T07:16:10;-0.20;99.90
15707;DHT22;7953;54.302;10.128;2023-03-01T07:18:36;-0.20;99.90
15707;DHT22;7953;54.302;10.128;2023-03-01T07:21:04;-0.10;99.90
15707;DHT22;7953;54.302;10.128;2023-03-01T07:23:32;-0.10;99.90
15707;DHT22;7953;54.302;10.128;2023-03-01T07:25:59;0.00;99.90
15707;DHT22;7953;54.302;10.128;2023-03-01T07:28:26;0.00;99.90
15707;DHT22;7953;54.302;10.128;2023-03-01T07:30:58;0.10;99.90
15707;DHT22;7953;54.302;10.128;2023-03-01T07:33:26;0.20;99.90
15707;DHT22;7953;54.302;10.128;2023-03-01T07:35:56;0.20;99.90
15707;DHT22;7953;54.302;10.128;2023-03-01T07:38:24;0.20;99.90
15707;DHT22;7953;54.302;10.128;2023-03-01T07:40:51;0.20;99.90
15707;DHT22;7953;54.302;10.128;2023-03-01T07:43:18;0.30;99.90
15707;DHT22;7953;54.302;10.128;2023-03-01T07:45:46;0.20;99.90
15707;DHT22;7953;54.302;10.128;2023-03-01T07:48:14;0.40;99.90
15707;DHT22;7953;54.302;10.128;2023-03-01T07:50:41;0.40;99.90
15707;DHT22;7953;54.302;10.128;2023-03-01T07:53:08;0.50;99.90
15707;DHT22;7953;54.302;10.128;2023-03-01T07:55:35;0.60;99.90
15707;DHT22;7953;54.302;10.128;2023-03-01T07:58:02;0.60;99.90
15707;DHT22;7953;54.302;10.128;2023-03-01T08:00:29;0.70;99.90
15707;DHT22;7953;54.302;10.128;2023-03-01T08:02:58;0.60;99.90
15707;DHT22;7953;54.302;10.128;2023-03-01T08:05:27;0.60;99.90
15707;DHT22;7953;54.302;10.128;2023-03-01T08:07:54;0.70;99.90
15707;DHT22;7953;54.302;10.128;2023-03-01T08:10:21;0.70;99.90
15707;DHT22;7953;54.302;10.128;2023-03-01T08:12:47;0.70;99.90
15707;DHT22;7953;54.302;10.128;2023-03-01T08:15:14;0.80;99.90
15707;DHT22;7953;54.302;10.128;2023-03-01T08:17:41;0.90;99.90
15707;DHT22;7953;54.302;10.128;2023-03-01T08:20:09;0.90;99.90
15707;DHT22;7953;54.302;10.128;2023-03-01T08:22:39;0.90;99.90
15707;DHT22;7953;54.302;10.128;2023-03-01T08:25:06;1.00;99.90
15707;DHT22;7953;54.302;10.128;2023-03-01T08:27:33;1.10;99.90
15707;DHT22;7953;54.302;10.128;2023-03-01T08:30:00;1.20;99.90
15707;DHT22;7953;54.302;10.128;2023-03-01T08:32:27;1.30;99.90
15707;DHT22;7953;54.302;10.128;2023-03-01T08:34:54;1.40;99.90
15707;DHT22;7953;54.302;10.128;2023-03-01T08:37:21;1.40;99.90
15707;DHT22;7953;54.302;10.128;2023-03-01T08:39:49;1.50;99.90
15707;DHT22;7953;54.302;10.128;2023-03-01T08:42:16;1.50;99.90
15707;DHT22;7953;54.302;10.128;2023-03-01T08:44:43;1.60;99.90
15707;DHT22;7953;54.302;10.128;2023-03-01T08:47:10;1.60;99.90
15707;DHT22;7953;54.302;10.128;2023-03-01T08:49:36;1.70;99.90
15707;DHT22;7953;54.302;10.128;2023-03-01T08:52:03;1.80;99.90
15707;DHT22;7953;54.302;10.128;2023-03-01T08:54:30;1.80;99.90
15707;DHT22;7953;54.302;10.128;2023-03-01T08:57:01;1.80;99.90
15707;DHT22;7953;54.302;10.128;2023-03-01T08:59:28;1.80;99.90
15707;DHT22;7953;54.302;10.128;2023-03-01T09:01:55;1.80;99.90
15707;DHT22;7953;54.302;10.128;2023-03-01T09:04:22;1.80;99.90
15707;DHT22;7953;54.302;10.128;2023-03-01T09:06:49;1.90;99.90
15707;DHT22;7953;54.302;10.128;2023-03-01T09:09:17;1.90;99.90
15707;DHT22;7953;54.302;10.128;2023-03-01T09:11:44;1.90;99.90
15707;DHT22;7953;54.302;10.128;2023-03-01T09:14:13;1.90;99.90
15707;DHT22;7953;54.302;10.128;2023-03-01T09:16:40;1.90;99.90
15707;DHT22;7953;54.302;10.128;2023-03-01T09:19:07;1.90;99.90
15707;DHT22;7953;54.302;10.128;2023-03-01T09:21:34;1.90;99.90
15707;DHT22;7953;54.302;10.128;2023-03-01T09:24:01;2.00;99.90
15707;DHT22;7953;54.302;10.128;2023-03-01T09:26:28;2.00;99.90
15707;DHT22;7953;54.302;10.128;2023-03-01T09:28:55;2.00;99.90
15707;DHT22;7953;54.302;10.128;2023-03-01T09:31:24;2.10;99.90
15707;DHT22;7953;54.302;10.128;2023-03-01T09:33:52;2.10;99.90
15707;DHT22;7953;54.302;10.128;2023-03-01T09:36:22;2.00;99.90
15707;DHT22;7953;54.302;10.128;2023-03-01T09:38:49;2.00;99.90
15707;DHT22;7953;54.302;10.128;2023-03-01T09:41:36;2.00;99.90
15707;DHT22;7953;54.302;10.128;2023-03-01T09:44:11;2.00;99.90
15707;DHT22;7953;54.302;10.128;2023-03-01T09:46:43;2.00;99.90
15707;DHT22;7953;54.302;10.128;2023-03-01T09:49:14;2.10;99.90
15707;DHT22;7953;54.302;10.128;2023-03-01T09:51:50;2.30;99.90
15707;DHT22;7953;54.302;10.128;2023-03-01T09:54:20;2.40;99.90
15707;DHT22;7953;54.302;10.128;2023-03-01T09:56:59;2.50;99.90
15707;DHT22;7953;54.302;10.128;2023-03-01T09:59:32;2.50;99.90
15707;DHT22;7953;54.302;10.128;2023-03-01T10:02:23;2.60;99.90
15707;DHT22;7953;54.302;10.128;2023-03-01T10:04:52;2.70;99.90
15707;DHT22;7953;54.302;10.128;2023-03-01T10:07:31;2.90;99.90
15707;DHT22;7953;54.302;10.128;2023-03-01T10:09:59;3.00;99.90
15707;DHT22;7953;54.302;10.128;2023-03-01T10:12:34;3.10;99.90
15707;DHT22;7953;54.302;10.128;2023-03-01T10:15:06;3.20;99.90
15707;DHT22;7953;54.302;10.128;2023-03-01T10:17:41;3.20;99.90
15707;DHT22;7953;54.302;10.128;2023-03-01T10:20:19;3.20;99.90
15707;DHT22;7953;54.302;10.128;2023-03-01T10:22:47;3.30;99.90
15707;DHT22;7953;54.302;10.128;2023-03-01T10:25:25;3.40;99.90
15707;DHT22;7953;54.302;10.128;2023-03-01T10:28:02;3.40;99.90
15707;DHT22;7953;54.302;10.128;2023-03-01T10:30:36;3.40;99.90
15707;DHT22;7953;54.302;10.128;2023-03-01T10:33:15;3.50;99.90
15707;DHT22;7953;54.302;10.128;2023-03-01T10:35:43;3.60;99.90
15707;DHT22;7953;54.302;10.128;2023-03-01T10:38:12;3.60;99.90
15707;DHT22;7953;54.302;10.128;2023-03-01T10:40:50;3.60;99.90
15707;DHT22;7953;54.302;10.128;2023-03-01T10:43:19;3.70;99.90
15707;DHT22;7953;54.302;10.128;2023-03-01T10:45:47;3.70;99.90
15707;DHT22;7953;54.302;10.128;2023-03-01T10:48:16;3.70;99.90
15707;DHT22;7953;54.302;10.128;2023-03-01T10:50:45;3.80;99.90
15707;DHT22;7953;54.302;10.128;2023-03-01T10:53:23;3.80;99.90
15707;DHT22;7953;54.302;10.128;2023-03-01T10:56:03;3.80;99.90
15707;DHT22;7953;54.302;10.128;2023-03-01T10:58:33;3.90;99.90
15707;DHT22;7953;54.302;10.128;2023-03-01T11:01:03;3.90;99.90
15707;DHT22;7953;54.302;10.128;2023-03-01T11:03:33;3.80;99.90
15707;DHT22;7953;54.302;10.128;2023-03-01T11:06:04;3.90;99.90
15707;DHT22;7953;54.302;10.128;2023-03-01T11:08:38;3.90;99.90
15707;DHT22;7953;54.302;10.128;2023-03-01T11:11:18;3.80;99.90
15707;DHT22;7953;54.302;10.128;2023-03-01T11:13:55;3.80;99.90
15707;DHT22;7953;54.302;10.128;2023-03-01T11:16:25;3.90;99.90
15707;DHT22;7953;54.302;10.128;2023-03-01T11:19:14;4.00;99.90
15707;DHT22;7953;54.302;10.128;2023-03-01T11:21:45;4.00;99.90
15707;DHT22;7953;54.302;10.128;2023-03-01T11:24:15;4.10;99.90
15707;DHT22;7953;54.302;10.128;2023-03-01T11:26:47;4.30;99.90
15707;DHT22;7953;54.302;10.128;2023-03-01T11:29:23;4.40;99.90
15707;DHT22;7953;54.302;10.128;2023-03-01T11:31:53;4.40;99.90
15707;DHT22;7953;54.302;10.128;2023-03-01T11:34:35;4.40;99.90
15707;DHT22;7953;54.302;10.128;2023-03-01T11:37:14;4.50;99.90
15707;DHT22;7953;54.302;10.128;2023-03-01T11:39:46;4.60;99.90
15707;DHT22;7953;54.302;10.128;2023-03-01T11:42:20;4.70;99.90
15707;DHT22;7953;54.302;10.128;2023-03-01T11:44:49;4.80;99.90
15707;DHT22;7953;54.302;10.128;2023-03-01T11:47:37;4.90;99.90
15707;DHT22;7953;54.302;10.128;2023-03-01T11:50:15;5.00;99.90
15707;DHT22;7953;54.302;10.128;2023-03-01T11:52:57;4.90;99.90
15707;DHT22;7953;54.302;10.128;2023-03-01T11:55:36;5.00;99.90
15707;DHT22;7953;54.302;10.128;2023-03-01T11:58:18;5.00;99.90
15707;DHT22;7953;54.302;10.128;2023-03-01T12:01:02;5.00;99.90
15707;DHT22;7953;54.302;10.128;2023-03-01T12:03:53;5.10;99.90
15707;DHT22;7953;54.302;10.128;2023-03-01T12:06:39;5.20;99.90
15707;DHT22;7953;54.302;10.128;2023-03-01T12:09:21;5.40;99.90
15707;DHT22;7953;54.302;10.128;2023-03-01T12:12:07;5.70;99.90
15707;DHT22;7953;54.302;10.128;2023-03-01T12:14:58;5.90;99.90
15707;DHT22;7953;54.302;10.128;2023-03-01T12:20:32;6.10;99.90
15707;DHT22;7953;54.302;10.128;2023-03-01T12:23:34;6.20;99.90
15707;DHT22;7953;54.302;10.128;2023-03-01T12:26:11;6.40;99.90
15707;DHT22;7953;54.302;10.128;2023-03-01T12:29:02;6.60;99.90
15707;DHT22;7953;54.302;10.128;2023-03-01T12:31:48;6.60;99.90
15707;DHT22;7953;54.302;10.128;2023-03-01T12:34:43;6.60;99.90
15707;DHT22;7953;54.302;10.128;2023-03-01T12:37:25;6.50;99.90
15707;DHT22;7953;54.302;10.128;2023-03-01T12:40:14;6.50;99.90
15707;DHT22;7953;54.302;10.128;2023-03-01T12:42:48;6.60;99.90
15707;DHT22;7953;54.302;10.128;2023-03-01T12:45:32;6.60;99.90
15707;DHT22;7953;54.302;10.128;2023-03-01T12:48:18;6.60;99.90
15707;DHT22;7953;54.302;10.128;2023-03-01T12:50:48;6.50;99.90
15707;DHT22;7953;54.302;10.128;2023-03-01T12:53:23;6.40;99.90
15707;DHT22;7953;54.302;10.128;2023-03-01T12:55:53;6.50;99.90
15707;DHT22;7953;54.302;10.128;2023-03-01T12:58:25;6.50;99.90
15707;DHT22;7953;54.302;10.128;2023-03-01T13:01:05;6.50;99.90
15707;DHT22;7953;54.302;10.128;2023-03-01T13:03:49;6.50;99.90
15707;DHT22;7953;54.302;10.128;2023-03-01T13:06:25;6.40;99.90
15707;DHT22;7953;54.302;10.128;2023-03-01T13:08:58;6.40;99.90
15707;DHT22;7953;54.302;10.128;2023-03-01T13:11:27;6.50;99.90
15707;DHT22;7953;54.302;10.128;2023-03-01T13:14:36;6.60;99.90
15707;DHT22;7953;54.302;10.128;2023-03-01T13:17:03;6.60;99.90
15707;DHT22;7953;54.302;10.128;2023-03-01T13:19:30;6.70;99.90
15707;DHT22;7953;54.302;10.128;2023-03-01T13:21:58;6.60;99.90
15707;DHT22;7953;54.302;10.128;2023-03-01T13:24:28;6.60;99.90
15707;DHT22;7953;54.302;10.128;2023-03-01T13:27:22;6.60;99.90
15707;DHT22;7953;54.302;10.128;2023-03-01T13:29:56;6.50;99.90
15707;DHT22;7953;54.302;10.128;2023-03-01T13:32:27;6.50;99.90
15707;DHT22;7953;54.302;10.128;2023-03-01T13:34:57;6.50;99.90
15707;DHT22;7953;54.302;10.128;2023-03-01T13:37:37;6.50;99.90
15707;DHT22;7953;54.302;10.128;2023-03-01T13:43:32;6.30;99.90
15707;DHT22;7953;54.302;10.128;2023-03-01T13:46:00;6.20;99.90
15707;DHT22;7953;54.302;10.128;2023-03-01T13:48:30;6.20;99.90
15707;DHT22;7953;54.302;10.128;2023-03-01T13:50:59;6.10;99.90
15707;DHT22;7953;54.302;10.128;2023-03-01T13:53:30;6.00;99.90
15707;DHT22;7953;54.302;10.128;2023-03-01T13:56:01;6.00;99.90
15707;DHT22;7953;54.302;10.128;2023-03-01T13:58:32;5.90;99.90
15707;DHT22;7953;54.302;10.128;2023-03-01T14:01:04;5.80;99.90
15707;DHT22;7953;54.302;10.128;2023-03-01T14:03:33;5.80;99.90
15707;DHT22;7953;54.302;10.128;2023-03-01T14:06:04;5.70;99.90
15707;DHT22;7953;54.302;10.128;2023-03-01T14:08:34;5.60;99.90
15707;DHT22;7953;54.302;10.128;2023-03-01T14:11:21;5.60;99.90
15707;DHT22;7953;54.302;10.128;2023-03-01T14:14:07;5.50;99.90
15707;DHT22;7953;54.302;10.128;2023-03-01T14:16:44;5.50;99.90
15707;DHT22;7953;54.302;10.128;2023-03-01T14:19:16;5.40;99.90
15707;DHT22;7953;54.302;10.128;2023-03-01T14:21:45;5.30;99.90
15707;DHT22;7953;54.302;10.128;2023-03-01T14:24:18;5.20;99.90
15707;DHT22;7953;54.302;10.128;2023-03-01T14:26:46;5.20;99.90
15707;DHT22;7953;54.302;10.128;2023-03-01T14:29:34;5.20;99.90
15707;DHT22;7953;54.302;10.128;2023-03-01T14:32:15;5.10;99.90
15707;DHT22;7953;54.302;10.128;2023-03-01T14:34:45;4.90;99.90
15707;DHT22;7953;54.302;10.128;2023-03-01T14:37:19;4.80;99.90
15707;DHT22;7953;54.302;10.128;2023-03-01T14:39:47;4.70;99.90
15707;DHT22;7953;54.302;10.128;2023-03-01T14:42:14;4.70;99.90
15707;DHT22;7953;54.302;10.128;2023-03-01T14:44:43;4.50;99.90
15707;DHT22;7953;54.302;10.128;2023-03-01T14:47:14;4.40;99.90
15707;DHT22;7953;54.302;10.128;2023-03-01T14:49:43;4.30;99.90
15707;DHT22;7953;54.302;10.128;2023-03-01T14:52:18;4.20;99.90
15707;DHT22;7953;54.302;10.128;2023-03-01T14:54:47;4.10;99.90
15707;DHT22;7953;54.302;10.128;2023-03-01T14:57:17;4.10;99.90
15707;DHT22;7953;54.302;10.128;2023-03-01T14:59:45;4.10;99.90
15707;DHT22;7953;54.302;10.128;2023-03-01T15:02:16;4.00;99.90
15707;DHT22;7953;54.302;10.128;2023-03-01T15:04:47;4.00;99.90
15707;DHT22;7953;54.302;10.128;2023-03-01T15:07:15;4.00;99.90
15707;DHT22;7953;54.302;10.128;2023-03-01T15:09:42;4.00;99.90
15707;DHT22;7953;54.302;10.128;2023-03-01T15:12:35;4.00;99.90
15707;DHT22;7953;54.302;10.128;2023-03-01T15:18:11;4.00;99.90
15707;DHT22;7953;54.302;10.128;2023-03-01T15:20:39;4.00;99.90
15707;DHT22;7953;54.302;10.128;2023-03-01T15:23:20;4.00;99.90
15707;DHT22;7953;54.302;10.128;2023-03-01T15:25:48;4.00;99.90
15707;DHT22;7953;54.302;10.128;2023-03-01T15:28:22;3.90;99.90
15707;DHT22;7953;54.302;10.128;2023-03-01T15:30:55;3.90;99.90
15707;DHT22;7953;54.302;10.128;2023-03-01T15:33:31;3.80;99.90
15707;DHT22;7953;54.302;10.128;2023-03-01T15:35:59;3.80;99.90
15707;DHT22;7953;54.302;10.128;2023-03-01T15:38:32;3.80;99.90
15707;DHT22;7953;54.302;10.128;2023-03-01T15:41:01;3.80;99.90
15707;DHT22;7953;54.302;10.128;2023-03-01T15:43:40;3.80;99.90
15707;DHT22;7953;54.302;10.128;2023-03-01T15:46:16;3.80;99.90
15707;DHT22;7953;54.302;10.128;2023-03-01T15:48:45;3.80;99.90
15707;DHT22;7953;54.302;10.128;2023-03-01T15:51:13;3.80;99.90
15707;DHT22;7953;54.302;10.128;2023-03-01T15:53:41;3.80;99.90
15707;DHT22;7953;54.302;10.128;2023-03-01T15:56:08;3.80;99.90
15707;DHT22;7953;54.302;10.128;2023-03-01T15:58:35;3.80;99.90
15707;DHT22;7953;54.302;10.128;2023-03-01T16:01:01;3.80;99.90
15707;DHT22;7953;54.302;10.128;2023-03-01T16:03:30;3.80;99.90
15707;DHT22;7953;54.302;10.128;2023-03-01T16:05:57;3.70;99.90
15707;DHT22;7953;54.302;10.128;2023-03-01T16:08:24;3.70;99.90
15707;DHT22;7953;54.302;10.128;2023-03-01T16:10:50;3.70;99.90
15707;DHT22;7953;54.302;10.128;2023-03-01T16:13:19;3.70;99.90
15707;DHT22;7953;54.302;10.128;2023-03-01T16:15:46;3.70;99.90
15707;DHT22;7953;54.302;10.128;2023-03-01T16:18:13;3.70;99.90